Time;durP1;ratioP1;P1;durP2;ratioP2;P2;SDS_P1;SDS_P2;PMS_P1;PMS_P2;Temp;Humidity;BMP_temperature;BMP_pressure;BME280_temperature;BME280_humidity;BME280_pressure;Samples;Min_cycle;Max_cycle;Signal;HPM_P1;HPM_P2
2022/08/05 00:01:23;;;;;;;3.40;3.17;;;;;;;;;;4996061;28;20064;-92
2022/08/05 00:03:55;;;;;;;4.68;2.70;;;;;;;;;;4996857;28;20138;-91
2022/08/05 00:06:23;;;;;;;3.15;2.85;;;;;;;;;;4995883;28;20081;-91
2022/08/05 00:08:59;;;;;;;3.22;3.03;;;;;;;;;;4996041;28;20054;-91
2022/08/05 00:11:27;;;;;;;3.58;2.90;;;;;;;;;;4995864;28;20043;-93
2022/08/05 00:14:14;;;;;;;9.13;2.90;;;;;;;;;;4995898;28;20049;-92
2022/08/05 00:16:43;;;;;;;3.60;3.28;;;;;;;;;;4996029;28;20054;-91
2022/08/05 00:19:20;;;;;;;3.53;3.28;;;;;;;;;;4995527;28;20507;-91
2022/08/05 00:21:49;;;;;;;3.28;2.97;;;;;;;;;;4995600;28;20145;-91
2022/08/05 00:24:16;;;;;;;4.05;3.45;;;;;;;;;;4996617;28;20105;-91
2022/08/05 00:26:51;;;;;;;4.18;3.10;;;;;;;;;;4996030;28;20050;-92
2022/08/05 00:29:19;;;;;;;4.40;3.33;;;;;;;;;;4995456;28;20104;-90
2022/08/05 00:31:48;;;;;;;5.88;3.47;;;;;;;;;;4995821;28;20046;-92
2022/08/05 00:34:35;;;;;;;3.05;2.80;;;;;;;;;;4995934;28;20402;-91
2022/08/05 00:37:22;;;;;;;4.68;3.47;;;;;;;;;;4995136;28;20054;-91
2022/08/05 00:39:50;;;;;;;4.32;3.40;;;;;;;;;;4995481;28;20097;-91
2022/08/05 00:42:35;;;;;;;5.55;3.22;;;;;;;;;;4995332;28;20051;-91
2022/08/05 00:45:04;;;;;;;4.00;3.25;;;;;;;;;;4995286;28;20050;-91
2022/08/05 00:47:35;;;;;;;3.20;3.00;;;;;;;;;;4995497;28;20056;-93
2022/08/05 00:50:22;;;;;;;3.50;3.03;;;;;;;;;;4995350;28;20503;-91
2022/08/05 00:52:51;;;;;;;3.55;3.35;;;;;;;;;;4995286;28;20050;-91
2022/08/05 00:55:21;;;;;;;3.85;3.38;;;;;;;;;;4995159;28;20058;-91
2022/08/05 00:57:48;;;;;;;3.70;3.40;;;;;;;;;;4995194;28;20080;-91
2022/08/05 01:00:24;;;;;;;3.63;3.33;;;;;;;;;;4995526;28;20077;-91
2022/08/05 01:02:52;;;;;;;3.83;3.53;;;;;;;;;;4995342;28;20046;-91
2022/08/05 01:05:19;;;;;;;4.30;4.00;;;;;;;;;;4995336;28;20146;-91
2022/08/05 01:07:46;;;;;;;3.60;3.30;;;;;;;;;;5001230;28;20054;-91
2022/08/05 01:10:40;;;;;;;3.63;3.20;;;;;;;;;;4995388;28;20050;-90
2022/08/05 01:13:23;;;;;;;4.93;2.97;;;;;;;;;;4995480;28;20056;-91
2022/08/05 01:16:13;;;;;;;3.50;3.30;;;;;;;;;;4995054;28;20414;-91
2022/08/05 01:18:50;;;;;;;4.65;3.65;;;;;;;;;;4994759;28;20056;-91
2022/08/05 01:21:36;;;;;;;3.50;3.20;;;;;;;;;;4995078;28;20141;-90
2022/08/05 01:24:10;;;;;;;3.50;3.30;;;;;;;;;;4994492;28;20064;-90
2022/08/05 01:27:00;;;;;;;3.55;3.30;;;;;;;;;;4994811;28;20085;-91
2022/08/05 01:29:46;;;;;;;6.53;3.55;;;;;;;;;;4994981;28;20054;-91
2022/08/05 01:32:18;;;;;;;4.05;3.60;;;;;;;;;;4994544;28;20054;-91
2022/08/05 01:34:46;;;;;;;3.90;3.60;;;;;;;;;;4994422;28;20054;-90
2022/08/05 01:37:17;;;;;;;3.80;3.42;;;;;;;;;;4993990;28;20050;-92
2022/08/05 01:39:53;;;;;;;3.80;3.50;;;;;;;;;;4994261;28;20058;-91
2022/08/05 01:42:26;;;;;;;4.10;3.72;;;;;;;;;;4994576;28;20483;-91
2022/08/05 01:44:55;;;;;;;4.65;3.92;;;;;;;;;;4994134;28;20094;-91
2022/08/05 01:47:26;;;;;;;3.85;3.55;;;;;;;;;;4994251;28;20050;-91
2022/08/05 01:50:08;;;;;;;5.38;3.55;;;;;;;;;;4994576;28;20060;-91
2022/08/05 01:52:42;;;;;;;7.53;3.95;;;;;;;;;;4994144;28;20396;-90
2022/08/05 01:55:11;;;;;;;3.90;3.45;;;;;;;;;;4993736;28;20053;-91
2022/08/05 01:57:41;;;;;;;5.32;3.78;;;;;;;;;;4993986;28;20058;-90
2022/08/05 02:00:30;;;;;;;8.27;3.40;;;;;;;;;;4993944;28;20050;-90
2022/08/05 02:02:59;;;;;;;6.47;4.00;;;;;;;;;;4993953;28;20050;-91
2022/08/05 02:05:31;;;;;;;5.15;3.95;;;;;;;;;;4993563;28;20077;-90
2022/08/05 02:08:02;;;;;;;3.78;3.58;;;;;;;;;;4993813;28;20393;-91
2022/08/05 02:10:33;;;;;;;3.80;3.60;;;;;;;;;;4993691;28;20443;-92
2022/08/05 02:13:29;;;;;;;4.20;3.90;;;;;;;;;;4993888;28;20046;-91
2022/08/05 02:16:27;;;;;;;6.10;3.73;;;;;;;;;;4993506;28;20487;-90
2022/08/05 02:19:06;;;;;;;3.90;3.60;;;;;;;;;;4993218;28;20050;-91
2022/08/05 02:21:36;;;;;;;10.32;4.40;;;;;;;;;;4993845;28;20555;-90
2022/08/05 02:24:16;;;;;;;4.28;3.97;;;;;;;;;;4993603;28;20058;-91
2022/08/05 02:26:48;;;;;;;4.03;3.80;;;;;;;;;;4993340;28;20104;-91
2022/08/05 02:29:21;;;;;;;3.78;3.58;;;;;;;;;;4993963;28;20080;-90
2022/08/05 02:32:09;;;;;;;3.92;3.63;;;;;;;;;;4999109;28;20137;-91
2022/08/05 02:34:37;;;;;;;4.43;4.03;;;;;;;;;;4993941;28;20058;-91
2022/08/05 02:37:08;;;;;;;4.82;4.15;;;;;;;;;;4993148;28;20050;-91
2022/08/05 02:39:37;;;;;;;4.50;3.72;;;;;;;;;;4993205;28;20057;-90
2022/08/05 02:42:08;;;;;;;3.92;3.63;;;;;;;;;;4993493;28;20050;-91
2022/08/05 02:44:37;;;;;;;4.20;3.90;;;;;;;;;;4993218;28;20137;-91
2022/08/05 02:47:05;;;;;;;7.85;4.03;;;;;;;;;;4993169;28;20056;-91
2022/08/05 02:49:35;;;;;;;6.25;4.13;;;;;;;;;;4993252;28;20073;-91
2022/08/05 02:52:06;;;;;;;;;;;;;;;;;;4993893;28;20129;-91
2022/08/05 02:54:34;;;;;;;6.97;3.72;;;;;;;;;;5025907;28;19922;-91
2022/08/05 02:57:05;;;;;;;4.15;3.38;;;;;;;;;;4993147;28;20077;-90
2022/08/05 02:59:53;;;;;;;4.35;4.00;;;;;;;;;;4992922;28;20056;-91
2022/08/05 03:02:22;;;;;;;3.83;3.63;;;;;;;;;;4992791;28;20672;-90
2022/08/05 03:04:54;;;;;;;3.90;3.60;;;;;;;;;;4993223;28;20133;-92
2022/08/05 03:07:21;;;;;;;7.90;4.43;;;;;;;;;;4993067;28;20129;-91
2022/08/05 03:10:09;;;;;;;4.82;3.80;;;;;;;;;;4993207;28;20050;-91
2022/08/05 03:12:39;;;;;;;4.45;4.15;;;;;;;;;;4993007;28;20061;-91
2022/08/05 03:15:08;;;;;;;7.47;4.32;;;;;;;;;;4992925;28;20074;-91
2022/08/05 03:17:38;;;;;;;5.60;4.07;;;;;;;;;;4992996;28;20050;-90
2022/08/05 03:20:11;;;;;;;4.07;3.78;;;;;;;;;;4992772;28;20112;-92
2022/08/05 03:22:39;;;;;;;4.07;3.78;;;;;;;;;;4992991;28;20054;-91
2022/08/05 03:25:17;;;;;;;4.25;3.83;;;;;;;;;;4993072;28;20055;-91
2022/08/05 03:28:05;;;;;;;6.68;3.95;;;;;;;;;;4993078;28;20054;-92
2022/08/05 03:30:34;;;;;;;7.57;4.38;;;;;;;;;;4993157;28;20056;-91
2022/08/05 03:33:03;;;;;;;5.20;3.90;;;;;;;;;;4996645;28;20082;-88
2022/08/05 03:35:32;;;;;;;4.65;4.20;;;;;;;;;;4996543;28;20137;-92
2022/08/05 03:38:00;;;;;;;4.53;3.60;;;;;;;;;;4996489;28;20052;-91
2022/08/05 03:40:27;;;;;;;8.43;4.53;;;;;;;;;;4996334;28;20073;-90
2022/08/05 03:42:58;;;;;;;4.57;4.18;;;;;;;;;;4996679;28;20054;-89
2022/08/05 03:45:46;;;;;;;6.18;5.68;;;;;;;;;;4996235;28;20065;-89
2022/08/05 03:48:24;;;;;;;4.38;4.07;;;;;;;;;;4997403;28;20543;-90
2022/08/05 03:50:52;;;;;;;4.65;4.20;;;;;;;;;;4997128;28;20058;-90
2022/08/05 03:53:28;;;;;;;7.20;5.63;;;;;;;;;;5002177;28;20070;-90
2022/08/05 03:56:26;;;;;;;9.20;6.03;;;;;;;;;;4997376;28;20475;-91
2022/08/05 03:59:02;;;;;;;23.55;6.85;;;;;;;;;;4996299;28;20054;-90
2022/08/05 04:01:32;;;;;;;14.48;8.10;;;;;;;;;;4996276;28;20054;-91
2022/08/05 04:04:00;;;;;;;13.98;8.95;;;;;;;;;;4995795;28;20525;-90
2022/08/05 04:06:36;;;;;;;13.10;10.52;;;;;;;;;;4996364;28;20137;-90
2022/08/05 04:09:14;;;;;;;9.68;6.88;;;;;;;;;;4995938;28;20113;-91
2022/08/05 04:11:46;;;;;;;8.30;6.17;;;;;;;;;;4997120;28;20057;-90
2022/08/05 04:14:18;;;;;;;11.20;4.90;;;;;;;;;;4995911;28;20054;-91
2022/08/05 04:16:57;;;;;;;8.48;4.68;;;;;;;;;;4995998;28;20057;-91
2022/08/05 04:19:24;;;;;;;4.88;4.50;;;;;;;;;;4995765;28;20105;-91
2022/08/05 04:21:51;;;;;;;5.30;4.80;;;;;;;;;;4995928;28;20085;-90
2022/08/05 04:24:38;;;;;;;6.18;5.18;;;;;;;;;;4995947;28;20487;-91
2022/08/05 04:27:10;;;;;;;;;;;;;;;;;;4996205;28;20570;-91
2022/08/05 04:29:37;;;;;;;5.63;5.20;;;;;;;;;;5028149;28;19953;-91
2022/08/05 04:32:05;;;;;;;6.55;5.15;;;;;;;;;;4995639;28;20496;-91
2022/08/05 04:34:33;;;;;;;10.77;5.10;;;;;;;;;;4995654;28;20486;-90
2022/08/05 04:37:08;;;;;;;5.40;5.00;;;;;;;;;;4995592;28;20047;-91
2022/08/05 04:39:36;;;;;;;9.23;5.57;;;;;;;;;;4995298;28;20073;-91
2022/08/05 04:42:05;;;;;;;5.82;5.10;;;;;;;;;;4994872;28;20053;-91
2022/08/05 04:44:32;;;;;;;9.77;5.13;;;;;;;;;;4995378;28;20057;-91
2022/08/05 04:46:59;;;;;;;16.20;6.40;;;;;;;;;;4995646;28;20054;-91
2022/08/05 04:49:36;;;;;;;5.68;5.25;;;;;;;;;;4995714;28;20046;-91
2022/08/05 04:52:23;;;;;;;6.43;5.22;;;;;;;;;;4995194;28;20118;-91
2022/08/05 04:54:53;;;;;;;7.85;5.55;;;;;;;;;;4995068;28;20050;-90
2022/08/05 04:57:24;;;;;;;6.35;4.82;;;;;;;;;;4995272;28;20078;-91
2022/08/05 04:59:55;;;;;;;8.00;4.68;;;;;;;;;;4993686;28;20058;-92
2022/08/05 05:02:22;;;;;;;14.23;5.72;;;;;;;;;;4995040;28;20084;-90
2022/08/05 05:05:04;;;;;;;29.45;6.78;;;;;;;;;;4995108;28;20058;-93
2022/08/05 05:07:51;;;;;;;44.50;7.95;;;;;;;;;;4995205;28;20058;-91
2022/08/05 05:10:22;;;;;;;36.50;6.22;;;;;;;;;;4995013;28;20145;-91
2022/08/05 05:12:50;;;;;;;24.02;5.43;;;;;;;;;;4994994;28;20046;-90
2022/08/05 05:15:17;;;;;;;8.90;4.80;;;;;;;;;;4995536;28;20137;-91
2022/08/05 05:18:04;;;;;;;7.65;4.60;;;;;;;;;;5006271;28;20114;-91
2022/08/05 05:20:32;;;;;;;9.82;4.72;;;;;;;;;;4994808;28;20050;-91
2022/08/05 05:23:00;;;;;;;6.63;4.30;;;;;;;;;;4995061;28;20079;-91
2022/08/05 05:25:34;;;;;;;9.85;4.80;;;;;;;;;;4994952;28;20468;-91
2022/08/05 05:28:07;;;;;;;5.23;3.80;;;;;;;;;;4994722;28;20101;-93
2022/08/05 05:30:35;;;;;;;7.95;4.07;;;;;;;;;;4994588;28;20054;-91
2022/08/05 05:33:03;;;;;;;12.65;4.05;;;;;;;;;;4994563;28;20085;-92
2022/08/05 05:35:44;;;;;;;15.50;4.45;;;;;;;;;;4995164;28;20466;-93
2022/08/05 05:38:12;;;;;;;13.00;6.00;;;;;;;;;;4994403;28;20050;-91
2022/08/05 05:40:41;;;;;;;10.07;4.75;;;;;;;;;;4994432;28;20050;-92
2022/08/05 05:43:16;;;;;;;13.90;4.20;;;;;;;;;;4994395;28;20495;-92
2022/08/05 05:46:03;;;;;;;15.57;4.28;;;;;;;;;;4994663;28;20487;-91
2022/08/05 05:48:33;;;;;;;12.15;3.88;;;;;;;;;;4995125;28;20278;-92
2022/08/05 05:51:00;;;;;;;17.23;4.20;;;;;;;;;;4994617;28;20061;-92
2022/08/05 05:53:41;;;;;;;11.45;4.50;;;;;;;;;;4993700;28;20060;-92
2022/08/05 05:56:24;;;;;;;12.02;4.43;;;;;;;;;;4994259;28;20077;-92
2022/08/05 05:58:59;;;;;;;8.82;3.97;;;;;;;;;;4994270;28;20057;-91
2022/08/05 06:01:29;;;;;;;9.85;4.07;;;;;;;;;;4994002;28;20053;-91
2022/08/05 06:04:04;;;;;;;12.25;4.13;;;;;;;;;;4994340;28;20057;-92
2022/08/05 06:06:32;;;;;;;11.45;4.30;;;;;;;;;;4994222;28;20054;-94
2022/08/05 06:09:01;;;;;;;16.33;4.38;;;;;;;;;;4994256;28;20070;-93
2022/08/05 06:11:30;;;;;;;17.75;4.00;;;;;;;;;;4994292;28;20056;-92
2022/08/05 06:13:57;;;;;;;13.85;4.20;;;;;;;;;;4994032;28;20050;-91
2022/08/05 06:16:26;;;;;;;6.10;3.80;;;;;;;;;;4993530;28;20100;-93
2022/08/05 06:19:03;;;;;;;9.73;3.55;;;;;;;;;;4994060;28;20050;-92
2022/08/05 06:21:33;;;;;;;12.68;3.95;;;;;;;;;;4993561;28;20051;-94
2022/08/05 06:24:07;;;;;;;5.93;3.45;;;;;;;;;;4993824;28;20054;-93
2022/08/05 06:26:39;;;;;;;11.13;4.25;;;;;;;;;;4993938;28;20070;-93
2022/08/05 06:29:17;;;;;;;8.27;4.30;;;;;;;;;;4993524;28;20271;-92
2022/08/05 06:32:05;;;;;;;11.90;4.53;;;;;;;;;;4994154;28;20050;-92
2022/08/05 06:34:47;;;;;;;16.63;4.80;;;;;;;;;;4993934;28;20483;-91
2022/08/05 06:37:20;;;;;;;10.68;4.25;;;;;;;;;;4993313;28;20050;-90
2022/08/05 06:40:07;;;;;;;11.05;4.80;;;;;;;;;;4994247;28;20052;-91
2022/08/05 06:42:34;;;;;;;17.08;4.10;;;;;;;;;;5006963;28;20054;-91
2022/08/05 06:45:06;;;;;;;17.27;4.32;;;;;;;;;;4996081;28;20101;-88
2022/08/05 06:47:35;;;;;;;15.38;3.50;;;;;;;;;;4993408;28;20054;-91
2022/08/05 06:50:22;;;;;;;7.90;2.65;;;;;;;;;;4993791;28;20084;-86
2022/08/05 06:52:49;;;;;;;3.60;1.80;;;;;;;;;;4993670;28;20061;-90
2022/08/05 06:55:29;;;;;;;5.30;1.60;;;;;;;;;;4993403;28;20046;-91
2022/08/05 06:58:02;;;;;;;1.85;1.50;;;;;;;;;;4993609;28;20054;-91
2022/08/05 07:00:49;;;;;;;4.93;1.88;;;;;;;;;;4993260;28;20050;-87
2022/08/05 07:03:17;;;;;;;2.60;1.58;;;;;;;;;;4993213;28;20122;-89
2022/08/05 07:05:44;;;;;;;2.45;1.63;;;;;;;;;;4994720;28;20050;-89
2022/08/05 07:08:12;;;;;;;6.78;1.75;;;;;;;;;;4997309;28;20125;-88
2022/08/05 07:10:40;;;;;;;2.90;1.25;;;;;;;;;;4997107;28;20476;-88
2022/08/05 07:19:31;;;;;;;1.52;1.40;;;;;;;;;;4997517;28;20066;-86
2022/08/05 07:22:21;;;;;;;2.75;1.10;;;;;;;;;;4996724;28;20069;-87
2022/08/05 07:24:56;;;;;;;2.50;1.40;;;;;;;;;;4996687;28;20050;-86
2022/08/05 07:27:23;;;;;;;4.72;1.30;;;;;;;;;;4996197;28;20572;-86
2022/08/05 07:30:10;;;;;;;2.88;1.40;;;;;;;;;;4996425;28;20491;-88
2022/08/05 07:32:54;;;;;;;1.02;1.00;;;;;;;;;;4996666;28;20092;-85
2022/08/05 07:35:23;;;;;;;3.17;1.30;;;;;;;;;;4995869;28;20509;-86
2022/08/05 07:38:11;;;;;;;1.30;1.20;;;;;;;;;;4996027;28;20074;-86
2022/08/05 07:40:58;;;;;;;2.63;1.10;;;;;;;;;;4996356;28;20054;-85
2022/08/05 07:43:45;;;;;;;3.13;1.30;;;;;;;;;;4997297;28;20056;-84
2022/08/05 07:46:12;;;;;;;3.83;1.65;;;;;;;;;;4995646;28;20096;-86
2022/08/05 07:48:52;;;;;;;1.48;1.30;;;;;;;;;;4996187;28;20407;-86
2022/08/05 07:51:30;;;;;;;4.20;1.38;;;;;;;;;;4995670;28;20491;-86
2022/08/05 07:54:06;;;;;;;6.72;1.40;;;;;;;;;;4995927;28;20050;-87
2022/08/05 07:56:36;;;;;;;2.72;1.15;;;;;;;;;;4997078;28;20074;-87
2022/08/05 07:59:23;;;;;;;4.45;1.20;;;;;;;;;;4995869;28;20047;-87
2022/08/05 08:02:06;;;;;;;1.55;1.45;;;;;;;;;;4995698;28;20133;-87
2022/08/05 08:04:42;;;;;;;1.50;1.10;;;;;;;;;;4995598;28;20150;-86
2022/08/05 08:07:11;;;;;;;6.28;1.10;;;;;;;;;;4995233;28;20454;-85
2022/08/05 08:09:38;;;;;;;3.20;1.23;;;;;;;;;;4995383;28;20100;-85
2022/08/05 08:12:05;;;;;;;4.22;1.00;;;;;;;;;;4995321;28;20467;-84
2022/08/05 08:14:53;;;;;;;2.58;1.10;;;;;;;;;;4995463;28;20491;-86
2022/08/05 08:17:20;;;;;;;3.33;1.10;;;;;;;;;;4995528;28;20105;-86
2022/08/05 08:19:48;;;;;;;6.22;1.02;;;;;;;;;;4995299;28;20054;-84
2022/08/05 08:22:35;;;;;;;4.35;1.30;;;;;;;;;;4995637;28;20384;-86
2022/08/05 08:25:02;;;;;;;1.25;0.90;;;;;;;;;;4995175;28;20058;-87
2022/08/05 08:27:43;;;;;;;2.17;0.70;;;;;;;;;;4995490;28;20051;-88
2022/08/05 08:30:14;;;;;;;1.40;0.90;;;;;;;;;;4995460;28;20084;-86
2022/08/05 08:33:00;;;;;;;1.65;1.10;;;;;;;;;;4995210;28;20050;-85
2022/08/05 08:35:34;;;;;;;1.63;0.90;;;;;;;;;;4996216;28;20053;-86
2022/08/05 08:38:08;;;;;;;4.53;0.80;;;;;;;;;;4994668;28;20448;-86
2022/08/05 08:40:43;;;;;;;3.22;1.20;;;;;;;;;;4995170;28;20046;-85
2022/08/05 08:43:18;;;;;;;1.23;1.10;;;;;;;;;;4994816;28;20092;-87
2022/08/05 08:46:05;;;;;;;2.80;1.17;;;;;;;;;;4994605;28;20514;-86
2022/08/05 08:48:42;;;;;;;4.75;0.90;;;;;;;;;;4994647;28;20501;-84
2022/08/05 08:51:31;;;;;;;3.13;1.10;;;;;;;;;;4995054;28;20394;-86
2022/08/05 08:54:18;;;;;;;4.95;1.35;;;;;;;;;;4994391;28;20513;-85
2022/08/05 08:56:46;;;;;;;4.82;0.98;;;;;;;;;;4994445;28;20055;-84
2022/08/05 08:59:17;;;;;;;3.53;1.10;;;;;;;;;;4994244;28;20108;-85
2022/08/05 09:01:46;;;;;;;4.43;0.90;;;;;;;;;;4994429;28;20050;-85
2022/08/05 09:04:27;;;;;;;2.45;1.00;;;;;;;;;;4994648;28;20076;-85
2022/08/05 09:06:56;;;;;;;2.40;0.93;;;;;;;;;;4994017;28;20059;-85
2022/08/05 09:09:24;;;;;;;2.70;1.30;;;;;;;;;;4994171;28;20484;-84
2022/08/05 09:12:05;;;;;;;1.95;1.17;;;;;;;;;;4994369;28;20463;-85
2022/08/05 09:14:52;;;;;;;4.53;1.30;;;;;;;;;;4994103;28;20046;-85
2022/08/05 09:17:32;;;;;;;2.85;1.45;;;;;;;;;;4994243;28;20050;-85
2022/08/05 09:20:15;;;;;;;2.85;1.27;;;;;;;;;;4994271;28;20499;-86
2022/08/05 09:23:04;;;;;;;0.80;0.80;;;;;;;;;;4994591;28;20046;-85
2022/08/05 09:25:35;;;;;;;5.97;1.10;;;;;;;;;;4993991;28;20064;-86
2022/08/05 09:28:23;;;;;;;2.95;1.33;;;;;;;;;;4993446;28;20053;-86
2022/08/05 09:31:03;;;;;;;0.90;0.90;;;;;;;;;;4993724;28;20086;-87
2022/08/05 09:33:57;;;;;;;1.55;0.73;;;;;;;;;;4994414;28;20050;-86
2022/08/05 09:36:37;;;;;;;1.80;0.90;;;;;;;;;;4998305;28;20113;-85
2022/08/05 09:39:23;;;;;;;1.80;1.08;;;;;;;;;;5000481;28;20113;-86
2022/08/05 09:42:09;;;;;;;5.10;1.40;;;;;;;;;;4994516;28;20046;-94
2022/08/05 09:44:44;;;;;;;9.77;0.90;;;;;;;;;;4994563;28;20064;-89
2022/08/05 09:47:18;;;;;;;0.88;0.40;;;;;;;;;;4994622;28;20058;-86
2022/08/05 09:49:48;;;;;;;2.70;0.93;;;;;;;;;;4995669;28;20066;-87
2022/08/05 09:52:28;;;;;;;2.13;0.50;;;;;;;;;;4994511;28;20079;-88
2022/08/05 09:55:06;;;;;;;1.80;0.60;;;;;;;;;;4993779;28;20054;-88
2022/08/05 09:57:53;;;;;;;0.75;0.32;;;;;;;;;;4994402;28;20050;-92
2022/08/05 10:00:26;;;;;;;1.65;0.60;;;;;;;;;;4994096;28;20141;-90
2022/08/05 10:02:55;;;;;;;1.85;0.50;;;;;;;;;;4994340;28;20060;-88
2022/08/05 10:05:26;;;;;;;4.78;0.98;;;;;;;;;;4994133;28;20105;-90
2022/08/05 10:07:54;;;;;;;4.57;0.77;;;;;;;;;;4993696;28;20133;-87
2022/08/05 10:10:45;;;;;;;0.80;0.60;;;;;;;;;;4994782;28;20141;-90
2022/08/05 10:13:28;;;;;;;2.40;0.60;;;;;;;;;;4993632;28;20495;-90
2022/08/05 10:16:30;;;;;;;0.95;0.70;;;;;;;;;;4993459;28;20418;-87
2022/08/05 10:19:00;;;;;;;7.57;0.90;;;;;;;;;;4993918;28;20051;-93
2022/08/05 10:21:34;;;;;;;0.60;0.60;;;;;;;;;;4993520;28;20494;-86
2022/08/05 10:24:07;;;;;;;0.73;0.50;;;;;;;;;;4994692;28;20056;-90
2022/08/05 10:26:37;;;;;;;0.60;0.60;;;;;;;;;;4993316;28;20104;-88
2022/08/05 10:29:20;;;;;;;2.67;0.70;;;;;;;;;;4993746;28;20058;-90
2022/08/05 10:32:08;;;;;;;3.22;0.73;;;;;;;;;;4994299;28;20061;-87
2022/08/05 10:34:57;;;;;;;2.03;0.80;;;;;;;;;;4993297;28;20068;-87
2022/08/05 10:37:29;;;;;;;2.38;0.70;;;;;;;;;;4994421;28;20081;-92
2022/08/05 10:40:09;;;;;;;3.60;0.80;;;;;;;;;;4992456;28;20588;-86
2022/08/05 10:42:46;;;;;;;1.88;0.52;;;;;;;;;;4993276;28;20108;-87
2022/08/05 10:45:15;;;;;;;0.70;0.70;;;;;;;;;;4993415;28;20405;-88
2022/08/05 10:48:29;;;;;;;0.60;0.60;;;;;;;;;;4994094;28;20061;-88
2022/08/05 10:51:07;;;;;;;1.08;0.90;;;;;;;;;;4981356;28;20054;-89
2022/08/05 10:53:59;;;;;;;3.60;0.88;;;;;;;;;;4993679;28;20077;-88
2022/08/05 10:56:28;;;;;;;0.70;0.70;;;;;;;;;;4994061;28;20137;-89
2022/08/05 10:58:55;;;;;;;2.35;0.75;;;;;;;;;;4994307;28;20081;-88
2022/08/05 11:01:35;;;;;;;1.08;0.80;;;;;;;;;;4993594;28;20060;-88
2022/08/05 11:04:22;;;;;;;0.80;0.80;;;;;;;;;;4993123;28;20406;-88
2022/08/05 11:07:03;;;;;;;1.55;0.80;;;;;;;;;;4993528;28;20086;-88
2022/08/05 11:09:44;;;;;;;2.13;0.73;;;;;;;;;;4993353;28;20082;-89
2022/08/05 11:12:32;;;;;;;1.55;0.60;;;;;;;;;;4993443;28;20081;-88
2022/08/05 11:15:09;;;;;;;0.95;0.68;;;;;;;;;;4997988;28;20050;-88
2022/08/05 11:17:50;;;;;;;1.25;0.90;;;;;;;;;;4997918;28;20046;-90
2022/08/05 11:20:43;;;;;;;4.75;1.13;;;;;;;;;;4993863;28;20076;-87
2022/08/05 11:23:30;;;;;;;2.08;0.80;;;;;;;;;;4992792;28;20065;-90
2022/08/05 11:26:20;;;;;;;1.33;0.80;;;;;;;;;;4992951;28;20080;-87
2022/08/05 11:28:58;;;;;;;1.35;0.80;;;;;;;;;;4993794;28;20127;-87
2022/08/05 11:31:38;;;;;;;1.92;0.90;;;;;;;;;;4992726;28;20133;-92
2022/08/05 11:34:35;;;;;;;0.75;0.70;;;;;;;;;;4992775;28;20392;-87
2022/08/05 11:37:02;;;;;;;1.10;0.80;;;;;;;;;;4992839;28;20503;-87
2022/08/05 11:39:51;;;;;;;0.60;0.60;;;;;;;;;;4992645;28;20589;-88
2022/08/05 11:42:29;;;;;;;0.95;0.70;;;;;;;;;;4992605;28;20050;-87
2022/08/05 11:45:02;;;;;;;1.92;0.85;;;;;;;;;;4993684;28;20046;-88
2022/08/05 11:47:30;;;;;;;0.73;0.70;;;;;;;;;;4992759;28;20481;-87
2022/08/05 11:50:16;;;;;;;0.82;0.80;;;;;;;;;;4993586;28;20054;-87
2022/08/05 11:52:43;;;;;;;3.60;0.90;;;;;;;;;;4993771;28;20514;-89
2022/08/05 11:55:15;;;;;;;3.95;0.90;;;;;;;;;;4996329;28;20061;-88
2022/08/05 11:57:46;;;;;;;0.70;0.70;;;;;;;;;;4996018;28;20553;-88
2022/08/05 12:00:33;;;;;;;1.00;0.90;;;;;;;;;;4996991;28;20042;-87
2022/08/05 12:03:19;;;;;;;2.00;1.17;;;;;;;;;;4996026;28;20054;-88
2022/08/05 12:06:01;;;;;;;1.17;0.73;;;;;;;;;;4997006;28;20054;-87
2022/08/05 12:08:29;;;;;;;2.28;0.90;;;;;;;;;;4996231;28;20054;-88
2022/08/05 12:10:59;;;;;;;1.73;0.93;;;;;;;;;;4995821;28;20521;-87
2022/08/05 12:13:31;;;;;;;3.40;1.20;;;;;;;;;;4995786;28;20058;-86
2022/08/05 12:16:17;;;;;;;13.68;1.45;;;;;;;;;;4996406;28;20046;-91
2022/08/05 12:18:45;;;;;;;1.98;1.00;;;;;;;;;;4996053;28;20494;-88
2022/08/05 12:21:18;;;;;;;4.38;1.20;;;;;;;;;;4996354;28;20057;-89
2022/08/05 12:23:54;;;;;;;9.52;1.15;;;;;;;;;;4995731;28;20124;-87
2022/08/05 12:26:21;;;;;;;1.70;1.30;;;;;;;;;;4995375;28;20078;-86
2022/08/05 12:28:50;;;;;;;2.35;1.30;;;;;;;;;;4996135;28;20557;-87
2022/08/05 12:31:19;;;;;;;2.00;0.90;;;;;;;;;;4995286;28;20398;-86
2022/08/05 12:33:59;;;;;;;1.13;1.10;;;;;;;;;;4995205;28;20129;-88
2022/08/05 12:36:29;;;;;;;1.27;1.10;;;;;;;;;;4996001;28;20097;-90
2022/08/05 12:38:57;;;;;;;2.25;1.08;;;;;;;;;;4996236;28;20073;-88
2022/08/05 12:41:30;;;;;;;2.53;1.15;;;;;;;;;;4995562;28;20137;-86
2022/08/05 12:44:02;;;;;;;1.75;1.05;;;;;;;;;;4994933;28;20054;-85
2022/08/05 12:46:30;;;;;;;0.90;0.90;;;;;;;;;;4995095;28;20089;-87
2022/08/05 12:49:00;;;;;;;0.98;0.98;;;;;;;;;;4995375;28;20074;-87
2022/08/05 12:51:59;;;;;;;1.00;1.00;;;;;;;;;;4996332;28;20141;-89
2022/08/05 12:54:47;;;;;;;1.35;1.20;;;;;;;;;;4996329;28;20491;-89
2022/08/05 12:57:15;;;;;;;5.80;1.23;;;;;;;;;;4996373;28;20050;-86
2022/08/05 12:59:44;;;;;;;0.93;0.85;;;;;;;;;;4995399;28;20510;-88
2022/08/05 13:02:35;;;;;;;1.30;1.20;;;;;;;;;;4995390;28;20053;-87
2022/08/05 13:05:05;;;;;;;3.90;1.00;;;;;;;;;;4994918;28;20058;-90
2022/08/05 13:07:33;;;;;;;0.93;0.90;;;;;;;;;;4994909;28;20497;-88
2022/08/05 13:10:20;;;;;;;3.20;1.23;;;;;;;;;;4994744;28;20047;-88
2022/08/05 13:12:47;;;;;;;4.90;0.80;;;;;;;;;;4995326;28;20072;-88
2022/08/05 13:15:29;;;;;;;4.00;1.27;;;;;;;;;;4995310;28;20050;-87
2022/08/05 13:18:15;;;;;;;0.77;0.60;;;;;;;;;;4995332;28;20483;-86
2022/08/05 13:20:46;;;;;;;0.57;0.55;;;;;;;;;;4995220;28;20050;-85
2022/08/05 13:23:20;;;;;;;1.55;0.80;;;;;;;;;;4995061;28;20419;-92
2022/08/05 13:25:49;;;;;;;0.60;0.60;;;;;;;;;;4994864;28;20054;-88
2022/08/05 13:28:25;;;;;;;5.85;1.15;;;;;;;;;;4994999;28;20485;-86
2022/08/05 13:30:53;;;;;;;2.80;0.70;;;;;;;;;;4994650;28;20050;-86
2022/08/05 13:33:20;;;;;;;2.85;1.00;;;;;;;;;;4994748;28;20069;-87
2022/08/05 13:36:09;;;;;;;4.93;0.95;;;;;;;;;;4994799;28;20058;-90
2022/08/05 13:38:36;;;;;;;3.35;1.10;;;;;;;;;;4994386;28;20467;-88
2022/08/05 13:41:09;;;;;;;3.30;0.90;;;;;;;;;;4994867;28;20061;-88
2022/08/05 13:43:36;;;;;;;3.95;0.95;;;;;;;;;;4994168;28;20054;-87
2022/08/05 13:46:14;;;;;;;1.20;0.70;;;;;;;;;;4994441;28;20423;-87
2022/08/05 13:48:42;;;;;;;0.88;0.50;;;;;;;;;;4995248;28;20075;-87
2022/08/05 13:51:31;;;;;;;3.15;0.90;;;;;;;;;;4996403;28;20406;-86
2022/08/05 13:54:10;;;;;;;2.28;0.90;;;;;;;;;;5002468;28;20081;-88
2022/08/05 13:56:39;;;;;;;1.65;0.70;;;;;;;;;;5011408;28;20050;-86
2022/08/05 13:59:17;;;;;;;2.13;0.90;;;;;;;;;;5004676;28;20057;-87
2022/08/05 14:01:47;;;;;;;0.93;0.90;;;;;;;;;;4997507;28;20084;-90
2022/08/05 14:07:17;;;;;;;0.70;0.70;;;;;;;;;;4995218;28;20084;-89
2022/08/05 14:10:12;;;;;;;2.08;0.80;;;;;;;;;;4995346;28;20050;-89
2022/08/05 14:12:39;;;;;;;2.05;1.02;;;;;;;;;;4994271;28;20511;-86
2022/08/05 14:15:09;;;;;;;0.90;0.90;;;;;;;;;;4993601;28;20046;-88
2022/08/05 14:17:56;;;;;;;1.13;0.80;;;;;;;;;;4994292;28;20060;-88
2022/08/05 14:20:28;;;;;;;0.88;0.88;;;;;;;;;;4994183;28;20076;-88
2022/08/05 14:22:56;;;;;;;0.70;0.70;;;;;;;;;;4993844;28;20404;-86
2022/08/05 14:25:23;;;;;;;5.32;1.00;;;;;;;;;;4993847;28;20076;-86
2022/08/05 14:27:54;;;;;;;2.20;0.85;;;;;;;;;;4994191;28;20105;-91
2022/08/05 14:30:23;;;;;;;0.68;0.68;;;;;;;;;;4977860;28;20549;-92
2022/08/05 14:32:52;;;;;;;2.28;1.00;;;;;;;;;;4993627;28;20082;-90
2022/08/05 14:35:19;;;;;;;7.25;1.20;;;;;;;;;;4993297;28;20124;-88
2022/08/05 14:37:49;;;;;;;2.25;1.00;;;;;;;;;;4993448;28;20054;-92
2022/08/05 14:40:21;;;;;;;3.55;1.33;;;;;;;;;;4993480;28;20117;-86
2022/08/05 14:42:50;;;;;;;1.60;1.00;;;;;;;;;;4993464;28;20051;-88
2022/08/05 14:45:18;;;;;;;1.25;0.80;;;;;;;;;;4993846;28;20466;-87
2022/08/05 14:47:45;;;;;;;5.43;1.20;;;;;;;;;;4993737;28;20092;-88
2022/08/05 14:50:31;;;;;;;2.92;1.00;;;;;;;;;;4994157;28;20048;-90
2022/08/05 14:53:02;;;;;;;4.13;0.82;;;;;;;;;;4993054;28;20086;-85
2022/08/05 14:55:31;;;;;;;4.90;1.20;;;;;;;;;;4993189;28;20069;-87
2022/08/05 14:58:06;;;;;;;2.47;0.93;;;;;;;;;;4993492;28;20396;-88
2022/08/05 15:00:39;;;;;;;0.93;0.93;;;;;;;;;;4993362;28;20511;-88
2022/08/05 15:03:29;;;;;;;3.05;1.27;;;;;;;;;;4993834;28;20054;-87
2022/08/05 15:06:00;;;;;;;2.40;1.35;;;;;;;;;;4993691;28;20046;-89
2022/08/05 15:08:39;;;;;;;3.25;1.17;;;;;;;;;;4993741;28;20050;-88
2022/08/05 15:11:26;;;;;;;9.68;1.33;;;;;;;;;;4993460;28;20059;-91
2022/08/05 15:14:13;;;;;;;2.28;1.30;;;;;;;;;;4993126;28;20388;-86
2022/08/05 15:17:00;;;;;;;2.53;1.05;;;;;;;;;;4993084;28;20145;-91
2022/08/05 15:19:29;;;;;;;3.47;1.10;;;;;;;;;;4993541;28;20129;-92
2022/08/05 15:21:57;;;;;;;1.50;1.40;;;;;;;;;;4993371;28;20141;-86
2022/08/05 15:24:27;;;;;;;1.33;1.30;;;;;;;;;;4992748;28;20054;-86
2022/08/05 15:26:54;;;;;;;1.55;1.45;;;;;;;;;;4994485;28;20285;-88
2022/08/05 15:29:22;;;;;;;2.20;1.42;;;;;;;;;;4997003;28;20502;-88
2022/08/05 15:31:49;;;;;;;1.00;1.00;;;;;;;;;;4996615;28;20054;-89
2022/08/05 15:34:19;;;;;;;2.08;1.48;;;;;;;;;;4996666;28;20061;-88
2022/08/05 15:36:59;;;;;;;1.25;1.25;;;;;;;;;;4996995;28;20050;-88
2022/08/05 15:39:32;;;;;;;2.03;1.42;;;;;;;;;;4996656;28;20078;-88
2022/08/05 15:42:19;;;;;;;3.22;1.38;;;;;;;;;;4996853;28;20143;-89